sensor_id;sensor_type;location;lat;lon;timestamp;pressure;altitude;pressure_sealevel;temperature;humidity
7474;BME280;3778;42.572;23.426;2023-03-14T00:00:57;95299.66;;;-146.70;53.45
7474;BME280;3778;42.572;23.426;2023-03-14T00:03:28;95372.59;;;-146.70;53.79
7474;BME280;3778;42.572;23.426;2023-03-14T00:05:54;95251.72;;;-146.70;54.44
7474;BME280;3778;42.572;23.426;2023-03-14T00:08:21;95312.16;;;-146.70;54.34
7474;BME280;3778;42.572;23.426;2023-03-14T00:10:50;95282.97;;;-146.70;55.34
7474;BME280;3778;42.572;23.426;2023-03-14T00:13:16;95320.50;;;-146.70;55.30
7474;BME280;3778;42.572;23.426;2023-03-14T00:15:43;95266.31;;;-146.70;55.71
7474;BME280;3778;42.572;23.426;2023-03-14T00:18:10;95239.22;;;-146.70;55.85
7474;BME280;3778;42.572;23.426;2023-03-14T00:20:38;95310.06;;;-146.70;56.52
7474;BME280;3778;42.572;23.426;2023-03-14T00:23:04;95345.50;;;-146.70;56.86
7474;BME280;3778;42.572;23.426;2023-03-14T00:25:31;95360.09;;;-146.70;57.69
7474;BME280;3778;42.572;23.426;2023-03-14T00:27:58;95366.34;;;-146.70;58.14
7474;BME280;3778;42.572;23.426;2023-03-14T00:30:24;95370.53;;;-146.70;58.64
7474;BME280;3778;42.572;23.426;2023-03-14T00:32:51;95345.50;;;-146.70;59.09
7474;BME280;3778;42.572;23.426;2023-03-14T00:35:18;95383.03;;;-146.70;58.32
7474;BME280;3778;42.572;23.426;2023-03-14T00:37:46;95405.94;;;-146.70;58.44
7474;BME280;3778;42.572;23.426;2023-03-14T00:40:13;95326.75;;;-146.70;57.35
7474;BME280;3778;42.572;23.426;2023-03-14T00:42:39;95380.94;;;-146.70;57.07
7474;BME280;3778;42.572;23.426;2023-03-14T00:45:07;95333.00;;;-146.70;57.33
7474;BME280;3778;42.572;23.426;2023-03-14T00:47:35;95364.25;;;-146.70;57.31
7474;BME280;3778;42.572;23.426;2023-03-14T00:50:02;95353.84;;;-146.70;57.30
7474;BME280;3778;42.572;23.426;2023-03-14T00:52:29;95364.25;;;-146.70;56.55
7474;BME280;3778;42.572;23.426;2023-03-14T00:54:57;95391.38;;;-146.70;55.69
7474;BME280;3778;42.572;23.426;2023-03-14T00:57:23;95347.59;;;-146.70;55.76
7474;BME280;3778;42.572;23.426;2023-03-14T00:59:50;95376.78;;;-146.70;55.23
7474;BME280;3778;42.572;23.426;2023-03-14T01:02:17;95328.84;;;-146.70;55.46
7474;BME280;3778;42.572;23.426;2023-03-14T01:04:47;95341.34;;;-146.70;55.35
7474;BME280;3778;42.572;23.426;2023-03-14T01:07:14;95355.94;;;-146.70;55.99
7474;BME280;3778;42.572;23.426;2023-03-14T01:09:40;95380.94;;;-146.70;56.21
7474;BME280;3778;42.572;23.426;2023-03-14T01:12:08;95424.72;;;-146.70;56.29
7474;BME280;3778;42.572;23.426;2023-03-14T01:14:35;95366.34;;;-146.70;56.31
7474;BME280;3778;42.572;23.426;2023-03-14T01:17:02;95439.31;;;-146.70;56.53
7474;BME280;3778;42.572;23.426;2023-03-14T01:19:28;95383.03;;;-146.70;56.99
7474;BME280;3778;42.572;23.426;2023-03-14T01:21:55;95362.19;;;-146.70;56.22
7474;BME280;3778;42.572;23.426;2023-03-14T01:24:22;95376.78;;;-146.70;56.26
7474;BME280;3778;42.572;23.426;2023-03-14T01:26:48;95395.53;;;-146.70;55.88
7474;BME280;3778;42.572;23.426;2023-03-14T01:29:16;95391.38;;;-146.70;55.14
7474;BME280;3778;42.572;23.426;2023-03-14T01:31:43;95366.34;;;-146.70;55.52
7474;BME280;3778;42.572;23.426;2023-03-14T01:34:10;95316.31;;;-146.70;55.45
7474;BME280;3778;42.572;23.426;2023-03-14T01:36:37;95368.44;;;-146.70;55.34
7474;BME280;3778;42.572;23.426;2023-03-14T01:39:03;95385.09;;;-146.70;55.25
7474;BME280;3778;42.572;23.426;2023-03-14T01:41:31;95270.47;;;-146.70;54.71
7474;BME280;3778;42.572;23.426;2023-03-14T01:43:58;95355.94;;;-146.70;54.73
7474;BME280;3778;42.572;23.426;2023-03-14T01:47:03;95374.69;;;-146.70;54.24
7474;BME280;3778;42.572;23.426;2023-03-14T01:49:33;95341.34;;;-146.70;54.20
7474;BME280;3778;42.572;23.426;2023-03-14T01:52:03;95349.69;;;-146.70;54.60
7474;BME280;3778;42.572;23.426;2023-03-14T01:54:35;95405.94;;;-146.70;54.49
7474;BME280;3778;42.572;23.426;2023-03-14T01:57:06;95355.94;;;-146.70;54.90
7474;BME280;3778;42.572;23.426;2023-03-14T01:59:35;95368.44;;;-146.70;55.56
7474;BME280;3778;42.572;23.426;2023-03-14T02:02:06;95312.16;;;-146.70;55.15
7474;BME280;3778;42.572;23.426;2023-03-14T02:04:35;95424.72;;;-146.70;56.00
7474;BME280;3778;42.572;23.426;2023-03-14T02:07:07;95380.94;;;-146.70;56.55
7474;BME280;3778;42.572;23.426;2023-03-14T02:09:35;95351.75;;;-146.70;56.37
7474;BME280;3778;42.572;23.426;2023-03-14T02:12:03;95387.19;;;-146.70;56.24
7474;BME280;3778;42.572;23.426;2023-03-14T02:14:32;95385.09;;;-146.70;56.11
7474;BME280;3778;42.572;23.426;2023-03-14T02:17:00;95374.69;;;-146.70;56.45
7474;BME280;3778;42.572;23.426;2023-03-14T02:19:38;95430.97;;;-146.70;56.66
7474;BME280;3778;42.572;23.426;2023-03-14T02:22:09;95374.69;;;-146.70;57.16
7474;BME280;3778;42.572;23.426;2023-03-14T02:24:41;95405.94;;;-146.70;57.49
7474;BME280;3778;42.572;23.426;2023-03-14T02:27:13;95333.00;;;-146.70;57.52
7474;BME280;3778;42.572;23.426;2023-03-14T02:29:47;95343.44;;;-146.70;57.86
7474;BME280;3778;42.572;23.426;2023-03-14T02:32:16;95416.38;;;-146.70;58.41
7474;BME280;3778;42.572;23.426;2023-03-14T02:34:45;95374.69;;;-146.70;59.10
7474;BME280;3778;42.572;23.426;2023-03-14T02:37:15;95389.28;;;-146.70;59.73
7474;BME280;3778;42.572;23.426;2023-03-14T02:39:44;95378.84;;;-146.70;60.26
7474;BME280;3778;42.572;23.426;2023-03-14T02:42:14;95391.38;;;-146.70;60.18
7474;BME280;3778;42.572;23.426;2023-03-14T02:44:52;95383.03;;;-146.70;60.23
7474;BME280;3778;42.572;23.426;2023-03-14T02:47:24;95433.06;;;-146.70;60.34
7474;BME280;3778;42.572;23.426;2023-03-14T02:49:58;95443.47;;;-146.70;60.51
7474;BME280;3778;42.572;23.426;2023-03-14T02:52:26;95389.28;;;-146.70;60.69
7474;BME280;3778;42.572;23.426;2023-03-14T02:54:52;95405.94;;;-146.70;60.87
7474;BME280;3778;42.572;23.426;2023-03-14T02:57:20;95412.22;;;-146.70;60.99
7474;BME280;3778;42.572;23.426;2023-03-14T02:59:47;95374.69;;;-146.70;61.11
7474;BME280;3778;42.572;23.426;2023-03-14T03:02:14;95418.47;;;-146.70;61.53
7474;BME280;3778;42.572;23.426;2023-03-14T03:04:40;95387.19;;;-146.70;61.63
7474;BME280;3778;42.572;23.426;2023-03-14T03:07:07;95422.63;;;-146.70;61.48
7474;BME280;3778;42.572;23.426;2023-03-14T03:09:34;95439.31;;;-146.70;61.75
7474;BME280;3778;42.572;23.426;2023-03-14T03:12:01;95403.88;;;-146.70;61.89
7474;BME280;3778;42.572;23.426;2023-03-14T03:14:29;95416.38;;;-146.70;62.43
7474;BME280;3778;42.572;23.426;2023-03-14T03:16:56;95378.84;;;-146.70;61.98
7474;BME280;3778;42.572;23.426;2023-03-14T03:19:22;95451.81;;;-146.70;63.17
7474;BME280;3778;42.572;23.426;2023-03-14T03:21:49;95420.53;;;-146.70;63.50
7474;BME280;3778;42.572;23.426;2023-03-14T03:24:16;95445.56;;;-146.70;63.93
7474;BME280;3778;42.572;23.426;2023-03-14T03:26:43;95445.56;;;-146.70;64.26
7474;BME280;3778;42.572;23.426;2023-03-14T03:29:09;95426.78;;;-146.70;64.76
7474;BME280;3778;42.572;23.426;2023-03-14T03:31:38;95437.22;;;-146.70;65.02
7474;BME280;3778;42.572;23.426;2023-03-14T03:34:05;95433.06;;;-146.70;65.04
7474;BME280;3778;42.572;23.426;2023-03-14T03:36:32;95447.63;;;-146.70;65.31
7474;BME280;3778;42.572;23.426;2023-03-14T03:38:59;95428.88;;;-146.70;64.04
7474;BME280;3778;42.572;23.426;2023-03-14T03:41:26;95420.53;;;-146.70;63.23
7474;BME280;3778;42.572;23.426;2023-03-14T03:43:52;95416.38;;;-146.70;63.47
7474;BME280;3778;42.572;23.426;2023-03-14T03:46:20;95416.38;;;-146.70;63.29
7474;BME280;3778;42.572;23.426;2023-03-14T03:48:48;95464.31;;;-146.70;64.65
7474;BME280;3778;42.572;23.426;2023-03-14T03:51:15;95412.22;;;-146.70;65.60
7474;BME280;3778;42.572;23.426;2023-03-14T03:53:42;95393.44;;;-146.70;65.47
7474;BME280;3778;42.572;23.426;2023-03-14T03:56:09;95481.00;;;-146.70;65.49
7474;BME280;3778;42.572;23.426;2023-03-14T03:58:36;95508.09;;;-146.70;65.56
7474;BME280;3778;42.572;23.426;2023-03-14T04:01:04;95447.63;;;-146.70;65.59
7474;BME280;3778;42.572;23.426;2023-03-14T04:03:32;95449.72;;;-146.70;65.90
7474;BME280;3778;42.572;23.426;2023-03-14T04:06:01;95466.41;;;-146.70;66.03
7474;BME280;3778;42.572;23.426;2023-03-14T04:08:28;95441.38;;;-146.70;65.91
7474;BME280;3778;42.572;23.426;2023-03-14T04:10:56;95408.03;;;-146.70;65.51
7474;BME280;3778;42.572;23.426;2023-03-14T04:13:23;95487.25;;;-146.70;65.54
7474;BME280;3778;42.572;23.426;2023-03-14T04:15:50;95483.06;;;-146.70;66.25
7474;BME280;3778;42.572;23.426;2023-03-14T04:18:17;95439.31;;;-146.70;66.68
7474;BME280;3778;42.572;23.426;2023-03-14T04:20:44;95493.50;;;-146.70;67.14
7474;BME280;3778;42.572;23.426;2023-03-14T04:23:12;95472.66;;;-146.70;67.15
7474;BME280;3778;42.572;23.426;2023-03-14T04:25:39;95453.91;;;-146.70;67.03
7474;BME280;3778;42.572;23.426;2023-03-14T04:28:06;95460.16;;;-146.70;66.59
7474;BME280;3778;42.572;23.426;2023-03-14T04:30:32;95458.06;;;-146.70;66.60
7474;BME280;3778;42.572;23.426;2023-03-14T04:32:59;95418.47;;;-146.70;66.59
7474;BME280;3778;42.572;23.426;2023-03-14T04:35:26;95499.75;;;-146.70;66.73
7474;BME280;3778;42.572;23.426;2023-03-14T04:37:52;95443.47;;;-146.70;67.14
7474;BME280;3778;42.572;23.426;2023-03-14T04:40:20;95470.56;;;-146.70;67.51
7474;BME280;3778;42.572;23.426;2023-03-14T04:42:47;95476.81;;;-146.70;67.93
7474;BME280;3778;42.572;23.426;2023-03-14T04:45:14;95476.81;;;-146.70;68.33
7474;BME280;3778;42.572;23.426;2023-03-14T04:47:41;95489.31;;;-146.70;67.99
7474;BME280;3778;42.572;23.426;2023-03-14T04:50:08;95447.63;;;-146.70;68.00
7474;BME280;3778;42.572;23.426;2023-03-14T04:52:35;95491.41;;;-146.70;68.13
7474;BME280;3778;42.572;23.426;2023-03-14T04:55:02;95447.63;;;-146.70;68.62
7474;BME280;3778;42.572;23.426;2023-03-14T04:57:30;95522.69;;;-146.70;68.89
7474;BME280;3778;42.572;23.426;2023-03-14T04:59:57;95466.41;;;-146.70;68.78
7474;BME280;3778;42.572;23.426;2023-03-14T05:02:24;95524.75;;;-146.70;68.92
7474;BME280;3778;42.572;23.426;2023-03-14T05:04:50;95485.16;;;-146.70;68.66
7474;BME280;3778;42.572;23.426;2023-03-14T05:07:17;95487.25;;;-146.70;68.34
7474;BME280;3778;42.572;23.426;2023-03-14T05:09:44;95508.09;;;-146.70;67.61
7474;BME280;3778;42.572;23.426;2023-03-14T05:12:10;95464.31;;;-146.70;67.13
7474;BME280;3778;42.572;23.426;2023-03-14T05:14:38;95470.56;;;-146.70;66.63
7474;BME280;3778;42.572;23.426;2023-03-14T05:17:05;95470.56;;;-146.70;66.74
7474;BME280;3778;42.572;23.426;2023-03-14T05:19:32;95416.38;;;-146.70;66.62
7474;BME280;3778;42.572;23.426;2023-03-14T05:21:59;95526.84;;;-146.70;66.79
7474;BME280;3778;42.572;23.426;2023-03-14T05:24:25;95470.56;;;-146.70;66.63
7474;BME280;3778;42.572;23.426;2023-03-14T05:26:53;95485.16;;;-146.70;66.75
7474;BME280;3778;42.572;23.426;2023-03-14T05:29:19;95430.97;;;-146.70;66.93
7474;BME280;3778;42.572;23.426;2023-03-14T05:31:47;95478.91;;;-146.70;66.46
7474;BME280;3778;42.572;23.426;2023-03-14T05:34:14;95416.38;;;-146.70;66.62
7474;BME280;3778;42.572;23.426;2023-03-14T05:36:41;95499.75;;;-146.70;66.88
7474;BME280;3778;42.572;23.426;2023-03-14T05:39:08;95462.22;;;-146.70;66.74
7474;BME280;3778;42.572;23.426;2023-03-14T05:41:34;95445.56;;;-146.70;66.70
7474;BME280;3778;42.572;23.426;2023-03-14T05:44:01;95445.56;;;-146.70;66.26
7474;BME280;3778;42.572;23.426;2023-03-14T05:46:28;95445.56;;;-146.70;65.92
7474;BME280;3778;42.572;23.426;2023-03-14T05:48:57;95433.06;;;-146.70;65.56
7474;BME280;3778;42.572;23.426;2023-03-14T05:51:24;95443.47;;;-146.70;65.42
7474;BME280;3778;42.572;23.426;2023-03-14T05:53:51;95399.69;;;-146.70;65.15
7474;BME280;3778;42.572;23.426;2023-03-14T05:56:18;95474.75;;;-146.70;65.17
7474;BME280;3778;42.572;23.426;2023-03-14T05:58:44;95420.53;;;-146.70;64.87
7474;BME280;3778;42.572;23.426;2023-03-14T06:01:11;95399.69;;;-146.70;64.24
7474;BME280;3778;42.572;23.426;2023-03-14T06:03:38;95416.38;;;-146.70;64.35
7474;BME280;3778;42.572;23.426;2023-03-14T06:06:06;95395.53;;;-146.70;64.22
7474;BME280;3778;42.572;23.426;2023-03-14T06:08:33;95368.44;;;-146.70;64.19
7474;BME280;3778;42.572;23.426;2023-03-14T06:11:02;95416.38;;;-146.70;63.95
7474;BME280;3778;42.572;23.426;2023-03-14T06:13:29;95370.53;;;-146.70;63.68
7474;BME280;3778;42.572;23.426;2023-03-14T06:15:56;95428.88;;;-146.70;63.58
7474;BME280;3778;42.572;23.426;2023-03-14T06:18:22;95414.28;;;-146.70;63.42
7474;BME280;3778;42.572;23.426;2023-03-14T06:20:49;95420.53;;;-146.70;62.80
7474;BME280;3778;42.572;23.426;2023-03-14T06:23:20;95416.38;;;-146.70;62.20
7474;BME280;3778;42.572;23.426;2023-03-14T06:25:47;95372.59;;;-146.70;62.07
7474;BME280;3778;42.572;23.426;2023-03-14T06:28:14;95416.38;;;-146.70;61.79
7474;BME280;3778;42.572;23.426;2023-03-14T06:30:41;95383.03;;;-146.70;61.06
7474;BME280;3778;42.572;23.426;2023-03-14T06:33:08;95341.34;;;-146.70;60.63
7474;BME280;3778;42.572;23.426;2023-03-14T06:35:35;95285.06;;;-146.70;60.42
7474;BME280;3778;42.572;23.426;2023-03-14T06:38:02;95368.44;;;-146.70;60.03
7474;BME280;3778;42.572;23.426;2023-03-14T06:40:31;95358.00;;;-146.70;59.71
7474;BME280;3778;42.572;23.426;2023-03-14T06:42:57;95318.41;;;-146.70;58.65
7474;BME280;3778;42.572;23.426;2023-03-14T06:45:24;95362.19;;;-146.70;58.47
7474;BME280;3778;42.572;23.426;2023-03-14T06:47:51;95341.34;;;-146.70;58.13
7474;BME280;3778;42.572;23.426;2023-03-14T06:50:17;95347.59;;;-146.70;57.64
7474;BME280;3778;42.572;23.426;2023-03-14T06:52:44;95324.66;;;-146.70;57.74
7474;BME280;3778;42.572;23.426;2023-03-14T06:55:13;95310.06;;;-146.70;57.09
7474;BME280;3778;42.572;23.426;2023-03-14T06:57:41;95278.81;;;-146.70;57.39
7474;BME280;3778;42.572;23.426;2023-03-14T07:00:10;95303.81;;;-146.70;56.68
7474;BME280;3778;42.572;23.426;2023-03-14T07:02:37;95299.66;;;-146.70;56.68
7474;BME280;3778;42.572;23.426;2023-03-14T07:05:05;95295.47;;;-146.70;56.39
7474;BME280;3778;42.572;23.426;2023-03-14T07:07:31;95235.03;;;-146.70;56.10
7474;BME280;3778;42.572;23.426;2023-03-14T07:09:58;95297.56;;;-146.70;54.73
7474;BME280;3778;42.572;23.426;2023-03-14T07:12:25;95216.28;;;-146.70;55.49
7474;BME280;3778;42.572;23.426;2023-03-14T07:14:53;95245.47;;;-146.70;54.28
7474;BME280;3778;42.572;23.426;2023-03-14T07:17:20;95262.13;;;-146.70;53.58
7474;BME280;3778;42.572;23.426;2023-03-14T07:19:46;95185.03;;;-146.70;53.27
7474;BME280;3778;42.572;23.426;2023-03-14T07:22:13;95270.47;;;-146.70;52.85
7474;BME280;3778;42.572;23.426;2023-03-14T07:24:40;95166.25;;;-146.70;52.51
7474;BME280;3778;42.572;23.426;2023-03-14T07:27:06;95180.84;;;-146.70;52.38
7474;BME280;3778;42.572;23.426;2023-03-14T07:29:33;95170.44;;;-146.70;51.52
7474;BME280;3778;42.572;23.426;2023-03-14T07:32:01;95145.41;;;-146.70;51.06
7474;BME280;3778;42.572;23.426;2023-03-14T07:34:28;95130.81;;;-146.70;50.68
7474;BME280;3778;42.572;23.426;2023-03-14T07:36:55;95191.28;;;-146.70;50.30
7474;BME280;3778;42.572;23.426;2023-03-14T07:39:21;95182.94;;;-146.70;50.55
7474;BME280;3778;42.572;23.426;2023-03-14T07:41:48;95180.84;;;-146.70;51.56
7474;BME280;3778;42.572;23.426;2023-03-14T07:44:14;95105.81;;;-146.70;50.05
7474;BME280;3778;42.572;23.426;2023-03-14T07:46:41;95101.66;;;-146.70;49.66
7474;BME280;3778;42.572;23.426;2023-03-14T07:49:09;95093.31;;;-146.70;49.32
7474;BME280;3778;42.572;23.426;2023-03-14T07:51:36;95087.06;;;-146.70;48.45
7474;BME280;3778;42.572;23.426;2023-03-14T07:54:03;95049.53;;;-146.70;48.36
7474;BME280;3778;42.572;23.426;2023-03-14T07:56:29;95039.13;;;-146.70;49.03
7474;BME280;3778;42.572;23.426;2023-03-14T07:58:56;95055.78;;;-146.70;49.36
7474;BME280;3778;42.572;23.426;2023-03-14T08:01:23;95066.22;;;-146.70;47.96
7474;BME280;3778;42.572;23.426;2023-03-14T08:03:50;95057.88;;;-146.70;48.06
7474;BME280;3778;42.572;23.426;2023-03-14T08:06:18;95016.19;;;-146.70;47.28
7474;BME280;3778;42.572;23.426;2023-03-14T08:08:45;95051.63;;;-146.70;48.11
7474;BME280;3778;42.572;23.426;2023-03-14T08:11:11;95005.78;;;-146.70;47.74
7474;BME280;3778;42.572;23.426;2023-03-14T08:13:38;95022.44;;;-146.70;47.95
7474;BME280;3778;42.572;23.426;2023-03-14T08:16:05;94991.19;;;-146.70;46.04
7474;BME280;3778;42.572;23.426;2023-03-14T08:18:32;94974.50;;;-146.70;46.22
7474;BME280;3778;42.572;23.426;2023-03-14T08:20:59;94945.34;;;-146.70;46.39
7474;BME280;3778;42.572;23.426;2023-03-14T08:23:27;94991.19;;;-146.70;45.98
7474;BME280;3778;42.572;23.426;2023-03-14T08:25:54;95014.13;;;-146.70;46.04
7474;BME280;3778;42.572;23.426;2023-03-14T08:28:21;95020.38;;;-146.70;45.85
7474;BME280;3778;42.572;23.426;2023-03-14T08:30:47;94966.19;;;-146.70;46.34
7474;BME280;3778;42.572;23.426;2023-03-14T08:33:14;94947.41;;;-146.70;45.72
7474;BME280;3778;42.572;23.426;2023-03-14T08:35:41;94934.91;;;-146.70;44.88
7474;BME280;3778;42.572;23.426;2023-03-14T08:38:08;94926.56;;;-146.70;44.98
7474;BME280;3778;42.572;23.426;2023-03-14T08:40:36;94930.75;;;-146.70;44.93
7474;BME280;3778;42.572;23.426;2023-03-14T08:43:03;94866.13;;;-146.70;44.36
7474;BME280;3778;42.572;23.426;2023-03-14T08:45:29;94841.13;;;-146.70;44.55
7474;BME280;3778;42.572;23.426;2023-03-14T08:47:57;94916.16;;;-146.70;44.56
7474;BME280;3778;42.572;23.426;2023-03-14T08:50:24;94899.47;;;-146.70;43.67
7474;BME280;3778;42.572;23.426;2023-03-14T08:52:51;94872.41;;;-146.70;43.58
7474;BME280;3778;42.572;23.426;2023-03-14T08:55:18;94841.13;;;-146.70;43.43
7474;BME280;3778;42.572;23.426;2023-03-14T08:57:46;94853.63;;;-146.70;42.97
7474;BME280;3778;42.572;23.426;2023-03-14T09:00:14;94857.81;;;-146.70;43.53
7474;BME280;3778;42.572;23.426;2023-03-14T09:02:42;94841.13;;;-146.70;43.18
7474;BME280;3778;42.572;23.426;2023-03-14T09:05:09;94807.78;;;-146.70;42.60
7474;BME280;3778;42.572;23.426;2023-03-14T09:07:36;94824.47;;;-146.70;42.95
7474;BME280;3778;42.572;23.426;2023-03-14T09:10:04;94816.13;;;-146.70;42.74
7474;BME280;3778;42.572;23.426;2023-03-14T09:12:31;94770.28;;;-146.70;42.23
7474;BME280;3778;42.572;23.426;2023-03-14T09:14:59;94782.78;;;-146.70;41.68
7474;BME280;3778;42.572;23.426;2023-03-14T09:17:26;94739.00;;;-146.70;41.76
7474;BME280;3778;42.572;23.426;2023-03-14T09:19:52;94749.44;;;-146.70;41.03
7474;BME280;3778;42.572;23.426;2023-03-14T09:22:19;94743.19;;;-146.70;41.63
7474;BME280;3778;42.572;23.426;2023-03-14T09:24:46;94726.50;;;-146.70;41.84
7474;BME280;3778;42.572;23.426;2023-03-14T09:27:13;94657.72;;;-146.70;39.97
7474;BME280;3778;42.572;23.426;2023-03-14T09:29:40;94674.41;;;-146.70;40.11
7474;BME280;3778;42.572;23.426;2023-03-14T09:32:08;94699.41;;;-146.70;39.77
7474;BME280;3778;42.572;23.426;2023-03-14T09:34:34;94645.22;;;-146.70;40.07
7474;BME280;3778;42.572;23.426;2023-03-14T09:37:01;94630.66;;;-146.70;40.69
7474;BME280;3778;42.572;23.426;2023-03-14T09:39:28;94659.81;;;-146.70;39.19
7474;BME280;3778;42.572;23.426;2023-03-14T09:41:56;94657.72;;;-146.70;39.97
7474;BME280;3778;42.572;23.426;2023-03-14T09:44:27;94636.91;;;-146.70;39.45
7474;BME280;3778;42.572;23.426;2023-03-14T09:46:57;94645.22;;;-146.70;38.79
7474;BME280;3778;42.572;23.426;2023-03-14T09:49:30;94626.47;;;-146.70;39.12
7474;BME280;3778;42.572;23.426;2023-03-14T09:51:59;94649.41;;;-146.70;39.22
7474;BME280;3778;42.572;23.426;2023-03-14T09:54:32;94636.91;;;-146.70;38.74
7474;BME280;3778;42.572;23.426;2023-03-14T09:57:01;94609.81;;;-146.70;38.85
7474;BME280;3778;42.572;23.426;2023-03-14T09:59:29;94611.88;;;-146.70;39.00
7474;BME280;3778;42.572;23.426;2023-03-14T10:01:58;94551.47;;;-146.70;39.43
7474;BME280;3778;42.572;23.426;2023-03-14T10:04:28;94584.78;;;-146.70;38.56
7474;BME280;3778;42.572;23.426;2023-03-14T10:06:57;94561.88;;;-146.70;39.04
7474;BME280;3778;42.572;23.426;2023-03-14T10:09:24;94528.53;;;-146.70;38.90
7474;BME280;3778;42.572;23.426;2023-03-14T10:11:54;94547.28;;;-146.70;38.94
7474;BME280;3778;42.572;23.426;2023-03-14T10:14:33;94516.03;;;-146.70;39.04
7474;BME280;3778;42.572;23.426;2023-03-14T10:17:08;94528.53;;;-146.70;38.75
7474;BME280;3778;42.572;23.426;2023-03-14T10:19:36;94536.88;;;-146.70;38.79
7474;BME280;3778;42.572;23.426;2023-03-14T10:22:04;94541.03;;;-146.70;39.30
7474;BME280;3778;42.572;23.426;2023-03-14T10:24:33;94416.00;;;-146.70;38.84
7474;BME280;3778;42.572;23.426;2023-03-14T10:27:03;94478.53;;;-146.70;39.06
7474;BME280;3778;42.572;23.426;2023-03-14T10:29:30;94499.34;;;-146.70;38.40
7474;BME280;3778;42.572;23.426;2023-03-14T10:32:02;94449.34;;;-146.70;38.76
7474;BME280;3778;42.572;23.426;2023-03-14T10:34:30;94449.34;;;-146.70;37.92
7474;BME280;3778;42.572;23.426;2023-03-14T10:37:05;94407.66;;;-146.70;37.90
7474;BME280;3778;42.572;23.426;2023-03-14T10:39:45;94395.16;;;-146.70;37.68
7474;BME280;3778;42.572;23.426;2023-03-14T10:42:20;94368.06;;;-146.70;37.29
7474;BME280;3778;42.572;23.426;2023-03-14T10:44:55;94449.34;;;-146.70;37.22
7474;BME280;3778;42.572;23.426;2023-03-14T10:47:27;94380.56;;;-146.70;38.03
7474;BME280;3778;42.572;23.426;2023-03-14T10:49:55;94334.72;;;-146.70;37.74
7474;BME280;3778;42.572;23.426;2023-03-14T10:52:25;94340.97;;;-146.70;37.41
7474;BME280;3778;42.572;23.426;2023-03-14T10:54:54;94388.91;;;-146.70;37.57
7474;BME280;3778;42.572;23.426;2023-03-14T10:57:23;94338.91;;;-146.70;37.09
7474;BME280;3778;42.572;23.426;2023-03-14T10:59:52;94399.34;;;-146.70;36.59
7474;BME280;3778;42.572;23.426;2023-03-14T11:02:34;94349.31;;;-146.70;36.62
7474;BME280;3778;42.572;23.426;2023-03-14T11:05:17;94286.81;;;-146.70;36.06
7474;BME280;3778;42.572;23.426;2023-03-14T11:07:48;94251.38;;;-146.70;36.43
7474;BME280;3778;42.572;23.426;2023-03-14T11:10:20;94224.28;;;-146.70;37.04
7474;BME280;3778;42.572;23.426;2023-03-14T11:13:01;94215.97;;;-146.70;35.86
7474;BME280;3778;42.572;23.426;2023-03-14T11:15:36;94301.38;;;-146.70;35.65
7474;BME280;3778;42.572;23.426;2023-03-14T11:21:13;94230.53;;;-146.70;35.46
7474;BME280;3778;42.572;23.426;2023-03-14T11:23:49;94253.47;;;-146.70;34.99
7474;BME280;3778;42.572;23.426;2023-03-14T11:26:26;94224.28;;;-146.70;34.87
7474;BME280;3778;42.572;23.426;2023-03-14T11:28:57;94245.13;;;-146.70;34.83
7474;BME280;3778;42.572;23.426;2023-03-14T11:31:27;94228.47;;;-146.70;33.96
7474;BME280;3778;42.572;23.426;2023-03-14T11:33:56;94163.88;;;-146.70;34.92
7474;BME280;3778;42.572;23.426;2023-03-14T11:36:30;94138.84;;;-146.70;33.69
7474;BME280;3778;42.572;23.426;2023-03-14T11:38:59;94078.44;;;-146.70;33.59
7474;BME280;3778;42.572;23.426;2023-03-14T11:41:30;94093.03;;;-146.70;34.09
7474;BME280;3778;42.572;23.426;2023-03-14T11:44:00;94103.44;;;-146.70;33.36
7474;BME280;3778;42.572;23.426;2023-03-14T11:46:32;94115.94;;;-146.70;33.49
7474;BME280;3778;42.572;23.426;2023-03-14T11:49:03;94095.09;;;-146.70;32.69
7474;BME280;3778;42.572;23.426;2023-03-14T11:51:34;94097.19;;;-146.70;32.62
7474;BME280;3778;42.572;23.426;2023-03-14T11:54:12;94053.44;;;-146.70;32.46
7474;BME280;3778;42.572;23.426;2023-03-14T11:56:44;94015.91;;;-146.70;32.48
7474;BME280;3778;42.572;23.426;2023-03-14T11:59:16;93995.09;;;-146.70;31.87
7474;BME280;3778;42.572;23.426;2023-03-14T12:01:56;93955.50;;;-146.70;32.45
7474;BME280;3778;42.572;23.426;2023-03-14T12:04:34;93945.06;;;-146.70;31.47
7474;BME280;3778;42.572;23.426;2023-03-14T12:07:11;93934.66;;;-146.70;31.77
7474;BME280;3778;42.572;23.426;2023-03-14T12:09:43;93888.81;;;-146.70;32.07
7474;BME280;3778;42.572;23.426;2023-03-14T12:12:13;93903.41;;;-146.70;31.61
7474;BME280;3778;42.572;23.426;2023-03-14T12:14:45;93874.25;;;-146.70;30.99
7474;BME280;3778;42.572;23.426;2023-03-14T12:17:25;94015.91;;;-146.70;31.05
7474;BME280;3778;42.572;23.426;2023-03-14T12:20:05;93965.91;;;-146.70;31.37
7474;BME280;3778;42.572;23.426;2023-03-14T12:22:42;93882.56;;;-146.70;31.02
7474;BME280;3778;42.572;23.426;2023-03-14T12:25:18;93788.81;;;-146.70;30.57
7474;BME280;3778;42.572;23.426;2023-03-14T12:28:03;93828.41;;;-146.70;30.43
7474;BME280;3778;42.572;23.426;2023-03-14T12:30:31;93882.56;;;-146.70;30.99
7474;BME280;3778;42.572;23.426;2023-03-14T12:33:26;93840.91;;;-146.70;31.07
7474;BME280;3778;42.572;23.426;2023-03-14T12:38:52;93780.47;;;-146.70;30.17
7474;BME280;3778;42.572;23.426;2023-03-14T12:41:26;93749.22;;;-146.70;30.49
7474;BME280;3778;42.572;23.426;2023-03-14T12:43:54;93684.63;;;-146.70;29.88
7474;BME280;3778;42.572;23.426;2023-03-14T12:46:23;93672.13;;;-146.70;29.07
7474;BME280;3778;42.572;23.426;2023-03-14T12:48:55;93595.03;;;-146.70;29.06
7474;BME280;3778;42.572;23.426;2023-03-14T12:51:29;93592.97;;;-146.70;29.42
7474;BME280;3778;42.572;23.426;2023-03-14T12:54:23;93490.88;;;-146.70;27.88
7474;BME280;3778;42.572;23.426;2023-03-14T12:57:15;93570.03;;;-146.70;28.07
7474;BME280;3778;42.572;23.426;2023-03-14T12:59:50;93615.88;;;-146.70;28.72
7474;BME280;3778;42.572;23.426;2023-03-14T13:02:21;93645.06;;;-146.70;28.66
7474;BME280;3778;42.572;23.426;2023-03-14T13:04:51;93476.28;;;-146.70;29.08